createdAt,value
2019-05-05T00:00:59.445Z,3.20
2019-05-05T00:03:46.138Z,3.10
2019-05-05T00:06:15.268Z,3.10
2019-05-05T00:08:45.704Z,3.10
2019-05-05T00:11:24.538Z,3.10
2019-05-05T00:14:04.706Z,3.00
2019-05-05T00:16:48.634Z,3.00
2019-05-05T00:19:29.935Z,3.00
2019-05-05T00:21:48.741Z,3.00
2019-05-05T00:24:17.778Z,2.90
2019-05-05T00:26:47.539Z,2.90
2019-05-05T00:29:16.592Z,2.90
2019-05-05T00:31:45.697Z,2.90
2019-05-05T00:34:15.477Z,2.90
2019-05-05T00:36:44.715Z,2.90
2019-05-05T00:39:14.935Z,2.80
2019-05-05T00:41:44.899Z,2.80
2019-05-05T00:44:15.408Z,2.70
2019-05-05T00:47:02.309Z,2.70
2019-05-05T00:49:45.701Z,2.70
2019-05-05T00:52:04.926Z,2.70
2019-05-05T00:54:34.679Z,2.70
2019-05-05T00:57:04.418Z,2.70
2019-05-05T00:59:34.745Z,2.70
2019-05-05T01:02:17.886Z,2.70
2019-05-05T01:04:59.089Z,2.60
2019-05-05T01:07:28.246Z,2.60
2019-05-05T01:09:57.293Z,2.60
2019-05-05T01:12:27.085Z,2.60
2019-05-05T01:18:24.673Z,2.60
2019-05-05T01:20:55.230Z,2.60
2019-05-05T01:23:24.480Z,2.60
2019-05-05T01:25:54.373Z,2.50
2019-05-05T01:28:24.972Z,2.50
2019-05-05T01:30:57.092Z,2.50
2019-05-05T01:33:40.202Z,2.50
2019-05-05T01:36:09.542Z,2.50
2019-05-05T01:38:44.776Z,2.50
2019-05-05T01:41:34.902Z,2.50
2019-05-05T01:44:04.832Z,2.50
2019-05-05T01:46:35.297Z,2.50
2019-05-05T01:49:05.361Z,2.50
2019-05-05T01:51:35.448Z,2.40
2019-05-05T01:54:07.599Z,2.40
2019-05-05T01:56:36.571Z,2.40
2019-05-05T01:59:05.790Z,2.30
2019-05-05T02:01:35.296Z,2.30
2019-05-05T02:04:06.322Z,2.30
2019-05-05T02:06:35.455Z,2.30
2019-05-05T02:09:07.113Z,2.30
2019-05-05T02:11:36.308Z,2.20
2019-05-05T02:14:05.383Z,2.20
2019-05-05T02:16:34.825Z,2.20
2019-05-05T02:19:05.034Z,2.10
2019-05-05T02:21:35.293Z,2.10
2019-05-05T02:24:05.209Z,2.10
2019-05-05T02:26:35.084Z,2.10
2019-05-05T02:29:26.418Z,2.10
2019-05-05T02:32:15.609Z,2.10
2019-05-05T02:34:49.379Z,2.10
2019-05-05T02:37:19.194Z,2.00
2019-05-05T02:39:57.922Z,2.00
2019-05-05T02:42:21.134Z,2.00
2019-05-05T02:44:50.350Z,2.00
2019-05-05T02:47:34.670Z,2.00
2019-05-05T02:50:07.247Z,2.00
2019-05-05T02:52:39.185Z,2.00
2019-05-05T02:55:09.767Z,2.00
2019-05-05T02:57:39.050Z,1.90
2019-05-05T03:00:20.326Z,1.90
2019-05-05T03:02:49.642Z,1.90
2019-05-05T03:05:18.558Z,1.90
2019-05-05T03:07:48.086Z,1.90
2019-05-05T03:10:17.151Z,1.90
2019-05-05T03:12:46.208Z,1.80
2019-05-05T03:15:24.375Z,1.90
2019-05-05T03:17:53.785Z,1.80
2019-05-05T03:20:23.793Z,1.80
2019-05-05T03:22:53.917Z,1.80
2019-05-05T03:25:24.179Z,1.80
2019-05-05T03:27:53.771Z,1.80
2019-05-05T03:30:25.793Z,1.80
2019-05-05T03:32:55.934Z,1.80
2019-05-05T03:35:24.334Z,1.80
2019-05-05T03:37:54.455Z,1.80
2019-05-05T03:40:27.356Z,1.80
2019-05-05T03:43:01.090Z,1.70
2019-05-05T03:45:44.534Z,1.70
2019-05-05T03:48:14.066Z,1.70
2019-05-05T03:50:44.645Z,1.70
2019-05-05T03:53:14.097Z,1.70
2019-05-05T03:55:44.028Z,1.80
2019-05-05T03:58:14.694Z,1.70
2019-05-05T04:01:20.824Z,1.70
2019-05-05T04:03:49.751Z,1.80
2019-05-05T04:06:36.150Z,1.70
2019-05-05T04:09:06.958Z,1.70
2019-05-05T04:11:36.617Z,1.80
2019-05-05T04:14:05.458Z,1.80
2019-05-05T04:16:40.702Z,1.80
2019-05-05T04:19:10.410Z,1.90
2019-05-05T04:21:39.243Z,1.90
2019-05-05T04:24:08.014Z,1.90
2019-05-05T04:26:36.841Z,1.90
2019-05-05T04:29:05.786Z,2.00
2019-05-05T04:31:34.725Z,2.00
2019-05-05T04:34:04.228Z,2.10
2019-05-05T04:36:34.066Z,2.10
2019-05-05T04:39:03.768Z,2.10
2019-05-05T04:41:33.782Z,2.20
2019-05-05T04:44:04.003Z,2.30
2019-05-05T04:46:33.810Z,2.30
2019-05-05T04:49:16.102Z,2.40
2019-05-05T04:51:50.296Z,2.40
2019-05-05T04:54:24.502Z,2.50
2019-05-05T04:56:54.025Z,2.50
2019-05-05T04:59:23.563Z,2.50
2019-05-05T05:01:55.436Z,2.60
2019-05-05T05:04:41.660Z,2.70
2019-05-05T05:10:51.845Z,2.90
2019-05-05T05:13:20.773Z,2.90
2019-05-05T05:15:49.795Z,3.00
2019-05-05T05:18:18.859Z,3.10
2019-05-05T05:20:47.764Z,3.20
2019-05-05T05:23:16.695Z,3.30
2019-05-05T05:25:45.863Z,3.40
2019-05-05T05:28:14.855Z,3.50
2019-05-05T05:30:43.989Z,3.60
2019-05-05T05:33:14.855Z,3.70
2019-05-05T05:35:44.159Z,3.70
2019-05-05T05:38:14.083Z,3.80
2019-05-05T05:40:58.175Z,3.90
2019-05-05T05:43:49.674Z,4.00
2019-05-05T05:46:40.747Z,4.10
2019-05-05T05:49:14.733Z,4.30
2019-05-05T05:51:44.690Z,4.40
2019-05-05T05:54:14.197Z,4.50
2019-05-05T05:56:44.670Z,4.60
2019-05-05T05:59:14.143Z,4.70
2019-05-05T06:01:43.735Z,4.80
2019-05-05T06:04:14.874Z,4.90
2019-05-05T06:06:43.919Z,5.10
2019-05-05T06:09:14.667Z,5.20
2019-05-05T06:11:43.813Z,5.30
2019-05-05T06:14:14.552Z,5.30
2019-05-05T06:16:44.683Z,5.50
2019-05-05T06:19:14.168Z,5.50
2019-05-05T06:21:43.967Z,5.60
2019-05-05T06:24:13.709Z,5.70
2019-05-05T06:26:44.578Z,5.90
2019-05-05T06:29:14.587Z,6.00
2019-05-05T06:31:44.764Z,6.10
2019-05-05T06:34:14.058Z,6.10
2019-05-05T06:36:44.510Z,6.30
2019-05-05T06:39:13.727Z,6.50
2019-05-05T06:42:07.632Z,6.60
2019-05-05T06:44:40.462Z,6.70
2019-05-05T06:47:13.363Z,6.60
2019-05-05T06:49:43.763Z,6.70
2019-05-05T06:52:14.253Z,6.90
2019-05-05T06:54:43.872Z,6.90
2019-05-05T06:57:13.705Z,7.10
2019-05-05T06:59:43.903Z,7.10
2019-05-05T07:02:14.581Z,7.10
2019-05-05T07:04:44.486Z,7.20
2019-05-05T07:07:14.551Z,7.30
2019-05-05T07:09:47.221Z,7.30
2019-05-05T07:12:16.243Z,7.30
2019-05-05T07:14:45.214Z,7.50
2019-05-05T07:17:14.889Z,7.70
2019-05-05T07:19:44.961Z,7.70
2019-05-05T07:22:17.516Z,7.80
2019-05-05T07:24:44.911Z,7.90
2019-05-05T07:27:14.336Z,8.00
2019-05-05T07:29:43.809Z,8.00
2019-05-05T07:32:14.228Z,8.10
2019-05-05T07:35:14.623Z,8.20
2019-05-05T07:37:43.772Z,8.20
2019-05-05T07:40:14.387Z,8.30
2019-05-05T07:42:44.109Z,8.40
2019-05-05T07:46:13.717Z,8.40
2019-05-05T07:48:44.219Z,8.50
2019-05-05T07:51:14.103Z,8.60
2019-05-05T07:53:44.308Z,8.70
2019-05-05T07:56:14.517Z,8.70
2019-05-05T07:58:43.968Z,8.70
2019-05-05T08:01:14.114Z,8.90
2019-05-05T08:03:44.562Z,8.90
2019-05-05T08:06:14.504Z,8.90
2019-05-05T08:08:44.380Z,8.90
2019-05-05T08:11:14.686Z,9.00
2019-05-05T08:13:45.327Z,9.20
2019-05-05T08:16:33.691Z,9.30
2019-05-05T08:19:30.058Z,9.30
2019-05-05T08:25:36.388Z,9.60
2019-05-05T08:28:17.109Z,9.90
2019-05-05T08:31:09.107Z,10.10
2019-05-05T08:33:38.119Z,10.30
2019-05-05T08:39:54.422Z,10.70
2019-05-05T08:42:24.660Z,10.60
2019-05-05T08:46:27.553Z,10.50
2019-05-05T08:52:23.721Z,10.20
2019-05-05T08:54:54.145Z,10.60
2019-05-05T08:57:23.662Z,10.70
2019-05-05T08:59:54.479Z,10.80
2019-05-05T09:02:24.021Z,10.80
2019-05-05T09:04:55.402Z,10.50
2019-05-05T09:07:24.425Z,10.50
2019-05-05T09:13:34.598Z,10.40
2019-05-05T09:16:03.898Z,10.50
2019-05-05T09:18:33.930Z,10.60
2019-05-05T09:21:04.351Z,10.50
2019-05-05T09:23:35.299Z,10.40
2019-05-05T09:26:19.639Z,10.40
2019-05-05T09:29:26.079Z,10.40
2019-05-05T09:31:55.218Z,10.50
2019-05-05T09:34:24.226Z,10.70
2019-05-05T09:36:54.461Z,10.60
2019-05-05T09:39:24.030Z,10.60
2019-05-05T09:41:53.576Z,10.60
2019-05-05T09:44:24.192Z,10.70
2019-05-05T09:46:53.940Z,10.80
2019-05-05T09:49:24.596Z,10.90
2019-05-05T09:51:54.498Z,11.00
2019-05-05T09:54:24.276Z,11.20
2019-05-05T09:56:55.493Z,11.30
2019-05-05T09:59:25.313Z,11.50
2019-05-05T10:01:57.939Z,11.70
2019-05-05T10:04:28.706Z,11.80
2019-05-05T10:06:57.846Z,12.10
2019-05-05T10:09:57.119Z,12.30
2019-05-05T10:12:26.078Z,12.20
2019-05-05T10:14:57.010Z,12.00
2019-05-05T10:17:25.987Z,11.70
2019-05-05T10:19:54.918Z,11.10
2019-05-05T10:22:23.983Z,10.80
2019-05-05T10:24:57.685Z,10.70
2019-05-05T10:27:53.812Z,10.50
2019-05-05T10:31:20.392Z,10.40
2019-05-05T10:33:55.474Z,10.60
2019-05-05T10:36:27.004Z,10.70
2019-05-05T10:39:05.981Z,10.80
2019-05-05T10:41:35.967Z,10.90
2019-05-05T10:44:05.141Z,11.00
2019-05-05T10:46:34.223Z,11.30
2019-05-05T10:49:09.848Z,11.50
2019-05-05T10:58:36.228Z,12.30
2019-05-05T11:05:16.100Z,12.60
2019-05-05T11:11:09.401Z,12.90
2019-05-05T11:13:44.994Z,12.90
2019-05-05T11:16:12.105Z,13.00
2019-05-05T11:18:44.532Z,12.90
2019-05-05T11:21:34.163Z,12.70
2019-05-05T11:27:08.975Z,12.60
2019-05-05T11:30:29.282Z,12.60
2019-05-05T11:33:38.816Z,12.60
2019-05-05T11:40:31.147Z,12.50
2019-05-05T11:42:55.562Z,12.60
2019-05-05T11:51:47.088Z,12.70
2019-05-05T11:54:17.454Z,13.00
2019-05-05T11:59:33.414Z,13.40
2019-05-05T12:02:03.797Z,13.70
2019-05-05T12:04:36.516Z,13.70
2019-05-05T12:07:05.496Z,13.50
2019-05-05T12:09:44.413Z,13.50
2019-05-05T12:12:14.268Z,13.60
2019-05-05T12:14:43.456Z,13.70
2019-05-05T12:17:24.591Z,13.80
2019-05-05T12:19:51.223Z,13.90
2019-05-05T12:22:20.478Z,14.10
2019-05-05T12:24:50.046Z,14.10
2019-05-05T12:27:38.259Z,14.20
2019-05-05T12:30:10.935Z,14.10
2019-05-05T12:32:39.983Z,13.90
2019-05-05T12:35:12.185Z,13.70
2019-05-05T12:37:41.361Z,13.50
2019-05-05T12:40:16.361Z,13.20
2019-05-05T12:42:45.267Z,12.90
2019-05-05T12:45:25.075Z,12.80
2019-05-05T12:48:14.926Z,12.80
2019-05-05T12:50:44.364Z,12.70
2019-05-05T12:53:32.650Z,12.60
2019-05-05T12:56:09.892Z,12.60
2019-05-05T12:58:39.113Z,12.50
2019-05-05T13:01:16.354Z,12.50
2019-05-05T13:03:47.121Z,12.60
2019-05-05T13:06:16.603Z,12.60
2019-05-05T13:08:45.762Z,12.70
2019-05-05T13:11:37.042Z,12.90
2019-05-05T13:14:06.314Z,13.00
2019-05-05T13:17:09.332Z,13.10
2019-05-05T13:19:49.482Z,13.50
2019-05-05T13:23:14.504Z,13.60
2019-05-05T13:26:15.239Z,13.60
2019-05-05T13:28:46.292Z,13.80
2019-05-05T13:31:16.030Z,13.90
2019-05-05T13:33:45.389Z,14.00
2019-05-05T13:36:54.326Z,14.00
2019-05-05T13:39:26.237Z,13.90
2019-05-05T13:42:04.833Z,13.80
2019-05-05T13:44:54.310Z,13.70
2019-05-05T13:47:23.859Z,13.40
2019-05-05T13:49:58.423Z,13.20
2019-05-05T13:52:27.661Z,13.10
2019-05-05T13:55:00.142Z,13.00
2019-05-05T13:57:35.342Z,12.80
2019-05-05T14:00:09.432Z,12.60
2019-05-05T14:02:39.957Z,12.60
2019-05-05T14:05:09.992Z,12.60
2019-05-05T14:07:43.672Z,12.60
2019-05-05T14:10:14.918Z,12.60
2019-05-05T14:12:45.688Z,12.50
2019-05-05T14:15:20.010Z,12.60
2019-05-05T14:17:50.098Z,12.60
2019-05-05T14:20:23.846Z,12.50
2019-05-05T14:22:54.241Z,12.40
2019-05-05T14:25:30.401Z,12.40
2019-05-05T14:27:59.746Z,12.30
2019-05-05T14:30:51.297Z,12.30
2019-05-05T14:33:26.651Z,12.30
2019-05-05T14:36:05.648Z,12.30
2019-05-05T14:38:39.965Z,12.30
2019-05-05T14:41:09.055Z,12.40
2019-05-05T14:43:38.310Z,12.50
2019-05-05T14:46:10.770Z,12.70
2019-05-05T14:48:39.912Z,12.90
2019-05-05T14:51:29.306Z,12.90
2019-05-05T14:54:00.080Z,12.80
2019-05-05T14:56:36.572Z,12.80
2019-05-05T14:59:03.706Z,12.70
2019-05-05T15:01:34.429Z,12.60
2019-05-05T15:04:28.376Z,12.50
2019-05-05T15:07:17.108Z,12.40
2019-05-05T15:09:48.883Z,12.20
2019-05-05T15:12:50.048Z,12.00
2019-05-05T15:15:30.603Z,11.90
2019-05-05T15:18:19.114Z,11.80
2019-05-05T15:20:50.342Z,11.70
2019-05-05T15:23:19.477Z,11.60
2019-05-05T15:25:53.914Z,11.70
2019-05-05T15:28:24.331Z,11.70
2019-05-05T15:30:56.047Z,11.70
2019-05-05T15:33:28.089Z,11.60
2019-05-05T15:36:13.742Z,11.50
2019-05-05T15:38:37.813Z,11.40
2019-05-05T15:41:14.953Z,11.20
2019-05-05T15:43:54.452Z,11.00
2019-05-05T15:46:24.418Z,10.90
2019-05-05T15:49:04.179Z,10.80
2019-05-05T15:51:54.000Z,10.70
2019-05-05T15:54:23.584Z,10.60
2019-05-05T15:57:04.799Z,10.60
2019-05-05T15:59:24.041Z,10.60
2019-05-05T16:01:54.932Z,10.70
2019-05-05T16:04:24.057Z,10.80
2019-05-05T16:06:57.785Z,10.80
2019-05-05T16:09:50.226Z,10.80
2019-05-05T16:12:31.310Z,10.80
2019-05-05T16:15:00.635Z,10.70
2019-05-05T16:24:33.707Z,10.60
2019-05-05T16:27:30.786Z,10.70
2019-05-05T16:59:55.576Z,10.50
2019-05-05T17:06:16.580Z,10.60
2019-05-05T17:16:30.385Z,10.40
2019-05-05T17:19:56.043Z,10.50
2019-05-05T17:28:33.390Z,10.20
2019-05-05T17:46:19.152Z,9.80
2019-05-05T17:56:08.876Z,9.20
2019-05-05T18:28:16.976Z,8.60
2019-05-05T18:35:29.583Z,8.60
2019-05-05T19:09:18.753Z,8.00
2019-05-05T19:25:39.926Z,7.80
2019-05-05T19:32:47.814Z,7.60
2019-05-05T19:36:36.127Z,7.50
2019-05-05T20:09:34.074Z,7.10
2019-05-05T20:14:47.603Z,7.10
2019-05-05T20:17:42.035Z,7.00
2019-05-05T20:25:07.383Z,7.00
2019-05-05T21:05:04.410Z,6.90
2019-05-05T21:08:37.983Z,6.90
2019-05-05T21:19:10.948Z,6.60
2019-05-05T21:21:55.792Z,6.50
2019-05-05T21:25:10.946Z,6.40
2019-05-05T21:29:38.474Z,6.40
2019-05-05T21:31:14.427Z,6.40
2019-05-05T22:08:57.058Z,6.20
2019-05-05T22:12:39.189Z,6.20
2019-05-05T22:15:21.444Z,6.30
2019-05-05T22:22:21.742Z,6.50
2019-05-05T22:43:39.789Z,6.20
2019-05-05T22:53:54.819Z,6.10
2019-05-05T23:14:38.220Z,5.70
2019-05-05T23:24:45.284Z,5.60
2019-05-05T23:31:37.629Z,5.60
2019-05-05T23:34:38.904Z,5.60
2019-05-05T23:42:57.170Z,5.50
2019-05-05T23:49:27.510Z,5.70
